createdAt,value
2022-11-25T00:02:02.359Z,1.32
2022-11-25T00:04:37.091Z,1.34
2022-11-25T00:07:07.521Z,1.35
2022-11-25T00:09:37.261Z,1.37
2022-11-25T00:12:06.309Z,1.37
2022-11-25T00:14:34.284Z,1.38
2022-11-25T00:17:02.876Z,1.38
2022-11-25T00:19:31.206Z,1.40
2022-11-25T00:22:00.292Z,1.38
2022-11-25T00:24:27.545Z,1.36
2022-11-25T00:26:55.850Z,1.42
2022-11-25T00:29:24.323Z,1.41
2022-11-25T00:31:52.684Z,1.43
2022-11-25T00:34:20.812Z,1.41
2022-11-25T00:36:49.333Z,1.43
2022-11-25T00:39:27.149Z,1.37
2022-11-25T00:42:14.554Z,1.36
2022-11-25T00:47:29.591Z,1.38
2022-11-25T00:49:57.747Z,1.38
2022-11-25T00:52:30.919Z,1.36
2022-11-25T00:54:59.695Z,1.38
2022-11-25T00:57:30.386Z,1.38
2022-11-25T00:59:59.225Z,1.36
2022-11-25T01:02:26.580Z,1.34
2022-11-25T01:04:56.555Z,1.35
2022-11-25T01:07:26.801Z,1.33
2022-11-25T01:09:57.097Z,1.33
2022-11-25T01:12:26.326Z,1.34
2022-11-25T01:14:56.127Z,1.35
2022-11-25T01:17:25.762Z,1.35
2022-11-25T01:20:00.261Z,1.34
2022-11-25T01:22:29.889Z,1.31
2022-11-25T01:24:59.628Z,1.32
2022-11-25T01:27:29.473Z,1.31
2022-11-25T01:29:59.148Z,1.32
2022-11-25T01:32:28.972Z,1.31
2022-11-25T01:34:58.727Z,1.32
2022-11-25T01:37:28.441Z,1.26
2022-11-25T01:39:58.170Z,1.22
2022-11-25T01:42:31.214Z,1.23
2022-11-25T01:45:28.670Z,1.20
2022-11-25T01:48:15.880Z,1.18
2022-11-25T01:51:25.752Z,1.19
2022-11-25T01:54:09.283Z,1.22
2022-11-25T04:57:15.909Z,1.46
2022-11-25T04:59:48.641Z,1.47
2022-11-25T05:14:54.796Z,1.63
2022-11-25T05:20:31.709Z,1.65
2022-11-25T05:23:01.930Z,1.62
2022-11-25T05:25:32.125Z,1.63
2022-11-25T05:28:03.885Z,1.65
2022-11-25T05:30:34.150Z,1.65
2022-11-25T05:33:04.325Z,1.66
2022-11-25T05:35:34.372Z,1.62
2022-11-25T05:38:04.393Z,1.68
2022-11-25T05:40:34.489Z,1.71
2022-11-25T05:43:04.903Z,1.72
2022-11-25T05:45:35.079Z,1.69
2022-11-25T05:48:11.129Z,1.67
2022-11-25T05:50:41.256Z,1.68
2022-11-25T05:53:11.557Z,1.66
2022-11-25T05:55:41.577Z,1.66
2022-11-25T05:58:11.594Z,1.67
2022-11-25T06:00:43.991Z,1.70
2022-11-25T06:03:14.237Z,1.70
2022-11-25T06:05:45.603Z,1.68
2022-11-25T06:08:15.592Z,1.63
2022-11-25T06:10:48.579Z,1.67
2022-11-25T06:13:20.517Z,1.67
2022-11-25T06:15:50.588Z,1.64
2022-11-25T06:18:20.644Z,1.59
2022-11-25T06:20:59.076Z,1.48
2022-11-25T06:23:29.273Z,1.37
2022-11-25T06:26:20.028Z,1.23
2022-11-25T06:28:55.913Z,1.24
2022-11-25T06:31:27.271Z,1.12
2022-11-25T06:33:57.468Z,0.98
2022-11-25T06:36:27.581Z,0.87
2022-11-25T06:39:11.484Z,0.77
2022-11-25T06:41:40.505Z,0.69
2022-11-25T06:44:08.874Z,0.62
2022-11-25T06:46:37.362Z,0.54
2022-11-25T06:49:05.924Z,0.46
2022-11-25T06:51:34.109Z,0.41
2022-11-25T06:54:02.542Z,0.36
2022-11-25T06:56:30.983Z,0.30
2022-11-25T06:58:59.337Z,0.25
2022-11-25T07:01:31.023Z,0.16
2022-11-25T07:04:17.789Z,0.10
2022-11-25T07:06:50.696Z,0.08
2022-11-25T07:09:22.457Z,0.02
2022-11-25T07:11:52.487Z,0.03
2022-11-25T07:14:22.592Z,-0.01
2022-11-25T07:16:52.632Z,-0.03
2022-11-25T07:19:22.828Z,-0.05
2022-11-25T07:21:53.033Z,-0.05
2022-11-25T07:24:35.625Z,-0.06
2022-11-25T07:27:06.988Z,-0.07
2022-11-25T07:29:57.879Z,-0.06
2022-11-25T07:32:45.317Z,-0.05
2022-11-25T07:35:15.513Z,-0.02
2022-11-25T07:37:45.802Z,0.01
2022-11-25T07:40:15.971Z,0.06
2022-11-25T07:42:45.998Z,0.13
2022-11-25T07:45:16.193Z,0.22
2022-11-25T07:47:46.255Z,0.30
2022-11-25T07:50:16.390Z,0.37
2022-11-25T07:52:46.401Z,0.43
2022-11-25T07:55:16.575Z,0.50
2022-11-25T07:57:46.654Z,0.60
2022-11-25T08:00:17.481Z,0.69
2022-11-25T08:02:47.517Z,0.81
2022-11-25T08:05:17.608Z,0.92
2022-11-25T08:07:47.644Z,1.07
2022-11-25T08:10:16.192Z,1.20
2022-11-25T08:12:44.440Z,1.34
2022-11-25T08:15:12.936Z,1.46
2022-11-25T08:17:41.308Z,1.49
2022-11-25T08:20:10.253Z,1.54
2022-11-25T08:22:38.129Z,1.59
2022-11-25T08:25:07.463Z,1.60
2022-11-25T08:27:34.992Z,1.60
2022-11-25T08:30:04.050Z,1.61
2022-11-25T08:32:31.827Z,1.69
2022-11-25T08:35:00.455Z,1.76
2022-11-25T08:37:32.082Z,1.84
2022-11-25T08:40:00.781Z,1.85
2022-11-25T08:42:28.585Z,1.96
2022-11-25T08:44:57.344Z,2.08
2022-11-25T08:47:26.115Z,2.19
2022-11-25T08:49:55.417Z,2.31
2022-11-25T08:52:25.640Z,2.40
2022-11-25T08:54:55.666Z,2.51
2022-11-25T08:57:25.672Z,2.56
2022-11-25T08:59:55.700Z,2.60
2022-11-25T09:02:25.910Z,2.64
2022-11-25T09:04:55.954Z,2.57
2022-11-25T09:07:30.528Z,2.66
2022-11-25T09:10:00.928Z,2.77
2022-11-25T09:12:30.950Z,2.83
2022-11-25T09:14:59.358Z,2.83
2022-11-25T09:17:27.761Z,2.89
2022-11-25T09:19:56.153Z,2.98
2022-11-25T09:22:24.920Z,3.06
2022-11-25T09:24:52.964Z,3.08
2022-11-25T09:27:21.389Z,3.12
2022-11-25T09:29:49.914Z,3.17
2022-11-25T09:32:18.257Z,3.19
2022-11-25T09:34:46.658Z,3.21
2022-11-25T09:37:15.572Z,3.25
2022-11-25T09:39:43.484Z,3.26
2022-11-25T09:42:52.407Z,3.37
2022-11-25T09:45:57.116Z,3.38
2022-11-25T09:49:31.999Z,3.56
2022-11-25T09:52:48.232Z,3.82
2022-11-25T09:55:25.798Z,3.94
2022-11-25T09:58:49.779Z,4.33
2022-11-25T10:01:28.659Z,4.78
2022-11-25T10:05:01.751Z,4.88
2022-11-25T10:07:46.783Z,5.05
2022-11-25T10:10:53.215Z,5.07
2022-11-25T10:14:23.368Z,5.16
2022-11-25T10:17:04.934Z,5.34
2022-11-25T10:20:08.028Z,5.80
2022-11-25T10:22:50.427Z,5.76
2022-11-25T10:25:47.173Z,5.88
2022-11-25T10:28:17.490Z,5.81
2022-11-25T10:31:00.681Z,5.62
2022-11-25T10:33:54.788Z,5.46
2022-11-25T10:36:34.816Z,5.03
2022-11-25T10:39:24.528Z,4.86
2022-11-25T10:42:12.107Z,4.82
2022-11-25T10:44:42.705Z,4.80
2022-11-25T10:48:14.120Z,5.03
2022-11-25T10:50:59.072Z,5.40
2022-11-25T10:53:32.014Z,5.73
2022-11-25T10:56:17.142Z,5.92
2022-11-25T10:58:47.243Z,5.81
2022-11-25T11:05:31.671Z,5.56
2022-11-25T11:08:25.055Z,5.39
2022-11-25T11:11:23.628Z,5.38
2022-11-25T11:14:20.932Z,5.41
2022-11-25T11:16:57.373Z,5.46
2022-11-25T11:19:31.967Z,5.55
2022-11-25T11:22:18.179Z,5.47
2022-11-25T11:24:48.252Z,5.49
2022-11-25T11:27:25.910Z,5.47
2022-11-25T11:30:21.327Z,5.39
2022-11-25T11:33:25.448Z,5.20
2022-11-25T11:36:17.785Z,5.15
2022-11-25T11:39:01.325Z,5.13
2022-11-25T11:42:00.920Z,5.18
2022-11-25T11:45:23.967Z,5.36
2022-11-25T11:48:21.042Z,5.39
2022-11-25T11:51:36.249Z,5.35
2022-11-25T11:54:37.053Z,5.45
2022-11-25T11:57:44.771Z,5.35
2022-11-25T12:00:20.353Z,5.30
2022-11-25T12:03:13.241Z,5.29
2022-11-25T12:05:41.643Z,5.33
2022-11-25T12:08:59.147Z,5.34
2022-11-25T12:11:43.155Z,5.26
2022-11-25T12:14:48.134Z,5.28
2022-11-25T12:17:46.786Z,5.42
2022-11-25T12:20:41.100Z,5.44
2022-11-25T12:24:04.720Z,5.44
2022-11-25T12:27:23.316Z,5.46
2022-11-25T12:30:16.402Z,5.55
2022-11-25T12:33:28.089Z,5.48
2022-11-25T12:36:30.659Z,5.36
2022-11-25T12:39:20.320Z,5.40
2022-11-25T12:42:21.093Z,5.45
2022-11-25T12:45:20.258Z,5.46
2022-11-25T12:47:52.070Z,5.46
2022-11-25T12:51:20.632Z,5.58
2022-11-25T12:54:47.431Z,5.49
2022-11-25T12:58:01.220Z,5.56
2022-11-25T13:01:33.024Z,5.57
2022-11-25T13:04:28.392Z,5.42
2022-11-25T13:07:38.324Z,5.52
2022-11-25T13:10:46.779Z,5.48
2022-11-25T13:13:39.094Z,5.57
2022-11-25T13:16:12.104Z,5.53
2022-11-25T13:18:46.639Z,5.48
2022-11-25T13:21:19.883Z,5.45
2022-11-25T13:23:58.887Z,5.50
2022-11-25T13:26:28.940Z,5.53
2022-11-25T13:29:11.963Z,5.49
2022-11-25T13:32:34.154Z,5.48
2022-11-25T13:35:32.159Z,5.48
2022-11-25T13:38:27.701Z,5.58
2022-11-25T13:41:20.975Z,5.53
2022-11-25T13:43:54.032Z,5.49
2022-11-25T13:46:52.388Z,5.43
2022-11-25T13:49:55.205Z,5.33
2022-11-25T13:52:42.565Z,5.32
2022-11-25T13:55:18.601Z,5.28
2022-11-25T13:58:12.143Z,5.28
2022-11-25T14:01:30.958Z,5.25
2022-11-25T14:04:09.425Z,5.22
2022-11-25T14:07:17.083Z,5.27
2022-11-25T14:10:39.262Z,5.22
2022-11-25T14:13:47.016Z,5.12
2022-11-25T14:17:25.491Z,5.06
2022-11-25T14:20:46.240Z,5.09
2022-11-25T14:23:58.058Z,4.88
2022-11-25T14:26:49.374Z,4.81
2022-11-25T14:29:32.080Z,4.68
2022-11-25T14:32:23.453Z,4.59
2022-11-25T14:35:16.231Z,4.50
2022-11-25T14:38:19.649Z,4.47
2022-11-25T14:41:07.215Z,4.42
2022-11-25T14:43:52.022Z,4.35
2022-11-25T14:46:25.654Z,4.29
2022-11-25T14:48:59.811Z,4.26
2022-11-25T14:51:39.193Z,4.25
2022-11-25T14:54:10.853Z,4.22
2022-11-25T14:56:41.954Z,4.21
2022-11-25T14:59:12.982Z,4.18
2022-11-25T15:01:55.640Z,4.15
2022-11-25T15:04:26.572Z,4.16
2022-11-25T15:07:02.360Z,4.16
2022-11-25T15:09:42.887Z,4.15
2022-11-25T15:12:22.469Z,4.13
2022-11-25T15:14:57.276Z,4.11
2022-11-25T15:17:39.356Z,4.10
2022-11-25T15:20:19.914Z,4.07
2022-11-25T15:22:54.011Z,4.06
2022-11-25T15:25:24.128Z,4.08
2022-11-25T15:27:54.064Z,4.06
2022-11-25T15:30:29.535Z,4.04
2022-11-25T15:33:01.386Z,4.04
2022-11-25T15:35:31.615Z,4.07
2022-11-25T15:38:39.023Z,4.09
2022-11-25T15:41:37.071Z,4.12
2022-11-25T15:44:07.720Z,4.15
2022-11-25T15:46:38.498Z,4.15
2022-11-25T15:49:19.543Z,4.14
2022-11-25T15:51:55.502Z,4.13
2022-11-25T15:54:45.707Z,4.14
2022-11-25T15:57:36.416Z,4.14
2022-11-25T16:00:17.672Z,4.14
2022-11-25T16:02:45.785Z,4.16
2022-11-25T16:05:14.181Z,4.15
2022-11-25T16:07:51.825Z,4.20
2022-11-25T16:10:41.809Z,4.27
2022-11-25T16:13:24.012Z,4.34
2022-11-25T16:16:07.353Z,4.27
2022-11-25T16:19:12.953Z,4.25
2022-11-25T16:22:00.297Z,4.22
2022-11-25T16:25:00.425Z,4.21
2022-11-25T16:27:38.964Z,4.19
2022-11-25T16:30:20.780Z,4.17
2022-11-25T16:32:50.835Z,4.16
2022-11-25T16:35:22.351Z,4.16
2022-11-25T16:37:50.126Z,4.16
2022-11-25T16:40:20.293Z,4.15
2022-11-25T16:42:53.443Z,4.16
2022-11-25T16:45:29.862Z,4.15
2022-11-25T16:47:58.745Z,4.16
2022-11-25T16:50:28.307Z,4.17
2022-11-25T16:52:58.182Z,4.16
2022-11-25T16:55:28.258Z,4.17
2022-11-25T16:57:58.620Z,4.17
2022-11-25T17:00:26.688Z,4.18
2022-11-25T17:02:56.727Z,4.19
2022-11-25T17:05:26.978Z,4.20
2022-11-25T17:07:55.206Z,4.21
2022-11-25T17:10:27.744Z,4.22
2022-11-25T17:12:57.235Z,4.22
2022-11-25T17:15:38.320Z,4.24
2022-11-25T17:18:11.065Z,4.24
2022-11-25T17:20:39.204Z,4.24
2022-11-25T17:23:16.161Z,4.23
2022-11-25T17:25:50.469Z,4.23
2022-11-25T17:28:21.902Z,4.25
2022-11-25T17:30:52.045Z,4.25
2022-11-25T17:33:22.403Z,4.23
2022-11-25T17:35:52.398Z,4.23
2022-11-25T17:38:22.606Z,4.22
2022-11-25T17:40:50.819Z,4.23
2022-11-25T17:43:22.006Z,4.23
2022-11-25T17:45:50.825Z,4.24
2022-11-25T17:48:20.569Z,4.23
2022-11-25T17:50:50.430Z,4.22
2022-11-25T17:53:20.043Z,4.22
2022-11-25T17:55:51.452Z,4.22
2022-11-25T17:58:20.721Z,4.22
2022-11-25T18:00:50.129Z,4.22
2022-11-25T18:03:20.018Z,4.21
2022-11-25T18:05:49.779Z,4.21
2022-11-25T18:08:19.493Z,4.21
2022-11-25T18:10:49.232Z,4.21
2022-11-25T18:13:19.086Z,4.22
2022-11-25T18:15:49.151Z,4.22
2022-11-25T18:18:25.702Z,4.21
2022-11-25T18:20:55.936Z,4.22
2022-11-25T18:23:24.180Z,4.20
2022-11-25T18:26:01.170Z,4.21
2022-11-25T18:28:33.170Z,4.21
2022-11-25T18:31:06.743Z,4.21
2022-11-25T18:33:35.013Z,4.22
2022-11-25T18:37:05.011Z,4.21
2022-11-25T18:39:35.058Z,4.22
2022-11-25T18:42:27.447Z,4.21
2022-11-25T18:44:57.497Z,4.21
2022-11-25T18:47:26.700Z,4.23
2022-11-25T18:49:56.796Z,4.22
2022-11-25T18:52:26.866Z,4.22
2022-11-25T18:54:56.784Z,4.20
2022-11-25T18:59:00.434Z,4.20
2022-11-25T19:01:31.382Z,4.17
2022-11-25T19:04:01.181Z,4.15
2022-11-25T19:06:31.778Z,4.15
2022-11-25T19:09:03.508Z,4.13
2022-11-25T19:11:41.726Z,4.13
2022-11-25T19:14:42.131Z,4.11
2022-11-25T19:17:24.432Z,4.11
2022-11-25T19:19:54.605Z,4.09
2022-11-25T19:22:24.993Z,4.10
2022-11-25T19:24:56.737Z,4.10
2022-11-25T19:27:51.140Z,4.12
2022-11-25T19:30:28.208Z,4.10
2022-11-25T19:33:28.444Z,4.08
2022-11-25T19:35:59.120Z,4.08
2022-11-25T19:38:31.064Z,4.08
2022-11-25T19:41:01.646Z,4.08
2022-11-25T19:43:29.170Z,4.10
2022-11-25T19:45:58.973Z,4.11
2022-11-25T19:48:39.052Z,4.11
2022-11-25T19:51:10.904Z,4.13
2022-11-25T19:53:41.047Z,4.13
2022-11-25T19:56:23.868Z,4.14
2022-11-25T19:58:55.317Z,4.15
2022-11-25T20:01:46.786Z,4.15
2022-11-25T20:04:22.355Z,4.15
2022-11-25T21:01:31.356Z,4.46
2022-11-25T21:04:01.445Z,4.51
2022-11-25T21:06:40.613Z,4.53
2022-11-25T21:09:24.940Z,4.54
2022-11-25T21:11:54.929Z,4.56
2022-11-25T21:14:24.976Z,4.61
2022-11-25T21:16:55.034Z,4.62
2022-11-25T21:19:25.125Z,4.62
2022-11-25T21:21:55.222Z,4.62
2022-11-25T21:24:35.018Z,4.63
2022-11-25T21:27:15.413Z,4.62
2022-11-25T21:29:46.439Z,4.62
2022-11-25T21:32:27.809Z,4.65
2022-11-25T21:34:58.240Z,4.65
2022-11-25T21:37:38.010Z,4.68
2022-11-25T21:40:41.058Z,4.72
2022-11-25T21:43:28.517Z,4.71
2022-11-25T21:46:11.055Z,4.72
2022-11-25T21:48:41.645Z,4.73
2022-11-25T21:51:21.782Z,4.72
2022-11-25T21:53:54.288Z,4.72
2022-11-25T21:56:34.047Z,4.72
2022-11-25T21:59:14.646Z,4.72
2022-11-25T22:01:45.587Z,4.72
2022-11-25T22:04:20.988Z,4.74
2022-11-25T22:06:51.571Z,4.77
2022-11-25T22:09:20.632Z,4.76
2022-11-25T22:11:50.700Z,4.77
2022-11-25T22:14:34.638Z,4.76
2022-11-25T22:17:16.868Z,4.76
2022-11-25T22:19:47.416Z,4.75
2022-11-25T22:22:18.987Z,4.76
2022-11-25T22:24:49.195Z,4.77
2022-11-25T22:27:28.602Z,4.81
2022-11-25T22:29:58.684Z,4.81
2022-11-25T22:32:27.117Z,4.82
2022-11-25T22:34:55.442Z,4.90
2022-11-25T22:37:25.140Z,4.99
2022-11-25T22:39:52.964Z,5.02
2022-11-25T22:42:30.992Z,5.08
2022-11-25T22:45:07.028Z,5.10
2022-11-25T22:47:45.247Z,5.13
2022-11-25T22:50:24.625Z,5.15
2022-11-25T22:52:56.873Z,5.17
2022-11-25T22:55:32.715Z,5.20
2022-11-25T22:58:04.707Z,5.20
2022-11-25T23:00:46.428Z,5.22
2022-11-25T23:03:29.692Z,5.22
2022-11-25T23:05:57.857Z,5.23
2022-11-25T23:08:31.894Z,5.25
2022-11-25T23:11:03.479Z,5.26
2022-11-25T23:13:53.030Z,5.32
2022-11-25T23:16:29.219Z,5.33
2022-11-25T23:18:59.450Z,5.38
2022-11-25T23:21:42.900Z,5.40
2022-11-25T23:24:17.792Z,5.37
2022-11-25T23:27:40.176Z,5.41
2022-11-25T23:30:22.100Z,5.45
2022-11-25T23:32:54.592Z,5.46
2022-11-25T23:35:37.835Z,5.50
2022-11-25T23:38:21.378Z,5.50
2022-11-25T23:40:49.185Z,5.45
2022-11-25T23:43:19.564Z,5.45
2022-11-25T23:45:57.060Z,5.50
2022-11-25T23:48:32.030Z,5.55
2022-11-25T23:51:02.366Z,5.47
2022-11-25T23:53:41.250Z,5.47
2022-11-25T23:56:08.623Z,5.48
2022-11-25T23:58:36.353Z,5.49
